EDT,Max TemperatureF,Mean TemperatureF,Min TemperatureF,Max Dew PointF,MeanDew PointF,Min DewpointF,Max Humidity, Mean Humidity, Min Humidity, Max Sea Level PressureIn, Mean Sea Level PressureIn, Min Sea Level PressureIn, Max VisibilityMiles, Mean VisibilityMiles, Min VisibilityMiles, Max Wind SpeedMPH, Mean Wind SpeedMPH, Max Gust SpeedMPH,PrecipitationIn, CloudCover, Events, WindDirDegrees
2013-7-1,85,77,69,74,70,66,100,90,61,30.01,29.89,29.83,10,7,1,15,5,18,1.70,7,Rain,203
2013-7-2,80,77,73,74,72,71,94,91,82,30.14,30.08,30.01,10,7,2,15,5,21,0.95,7,Rain,160
2013-7-3,83,78,73,75,73,71,100,92,79,30.22,30.18,30.12,10,7,0,14,4,18,1.51,5,Fog-Rain,142
2013-7-4,90,82,73,75,73,70,100,85,55,30.23,30.20,30.15,10,10,7,17,7,24,0.03,5,Rain,140
2013-7-5,90,82,74,76,73,71,94,86,56,30.24,30.20,30.16,10,8,2,13,5,15,1.10,5,Rain,122
2013-7-6,86,80,73,75,73,71,94,87,61,30.22,30.18,30.13,10,9,6,16,4,22,0.09,5,Rain,142
2013-7-7,89,81,73,75,73,70,94,80,59,30.19,30.16,30.10,10,10,7,15,4,17,0.00,3,,176
2013-7-8,88,81,73,74,72,70,93,79,55,30.20,30.17,30.12,10,10,9,12,3,16,0.00,1,,196
2013-7-9,89,82,74,77,73,71,93,82,59,30.19,30.15,30.09,10,10,10,13,4,14,T,2,Rain,206
2013-7-10,89,81,73,74,72,68,94,81,59,30.12,30.06,29.98,10,9,2,18,4,24,0.21,3,Rain,198
2013-7-11,90,81,71,74,71,68,100,85,56,30.01,29.95,29.87,10,8,0,22,6,28,2.80,5,Fog-Rain,185
2013-7-12,83,77,71,74,71,67,93,86,69,29.98,29.93,29.86,10,9,2,15,3,33,0.64,5,Rain,128
2013-7-13,86,79,71,73,71,69,93,89,69,30.07,30.02,29.96,10,8,1,13,5,16,0.99,6,Rain,67
2013-7-14,86,80,73,74,72,70,93,87,61,30.24,30.16,30.08,10,8,2,16,6,26,0.47,5,Rain,110
2013-7-15,88,81,74,75,73,70,100,87,65,30.27,30.24,30.22,10,8,1,16,5,24,0.18,5,Rain,63
2013-7-16,90,81,71,75,71,67,100,82,47,30.31,30.27,30.21,10,7,2,8,2,13,0.00,3,,49
2013-7-17,94,84,73,74,71,68,94,79,46,30.23,30.19,30.13,10,9,6,16,2,22,0.10,2,Rain,332
2013-7-18,89,80,71,73,70,68,93,75,55,30.19,30.13,30.07,10,10,7,9,3,12,0.00,0,,182
2013-7-19,88,80,71,73,71,69,93,78,55,30.14,30.09,30.01,10,8,0,18,4,24,0.50,3,Rain,166
2013-7-20,87,80,72,72,70,69,93,81,57,30.09,30.05,29.97,10,10,9,18,8,29,T,5,Rain,214
2013-7-21,87,81,74,72,72,70,93,82,61,30.05,30.01,29.95,10,10,3,17,7,21,0.04,6,Rain,220
2013-7-22,88,81,74,72,70,68,93,76,55,30.02,29.97,29.90,10,10,8,17,9,22,0.00,5,,238
2013-7-23,90,82,74,72,70,66,87,74,47,29.92,29.88,29.80,10,10,9,16,8,22,0.00,3,,240
2013-7-24,86,79,72,73,71,69,93,80,61,29.84,29.81,29.77,10,10,7,10,4,15,T,3,,234
2013-7-25,91,81,71,71,69,67,93,71,50,30.01,29.89,29.79,10,10,10,12,4,16,0.00,2,,44
2013-7-26,90,81,71,72,70,67,90,73,47,30.09,30.04,29.99,10,9,5,12,5,16,0.00,2,,100
2013-7-27,87,80,73,75,72,69,94,86,61,30.04,29.99,29.92,10,6,0,25,4,32,1.19,5,Fog-Rain,148
2013-7-28,89,81,73,72,71,70,93,83,55,30.03,29.96,29.93,10,7,0,10,3,24,0.00,4,Fog,206
2013-7-29,90,82,73,74,71,69,93,88,56,30.16,30.08,30.01,10,5,0,20,2,26,0.72,4,Fog-Rain,140
2013-7-30,90,81,71,74,71,69,100,84,52,30.20,30.16,30.11,10,6,0,8,1,10,T,5,Fog-Rain,86
2013-7-31,83,78,73,75,72,70,94,87,74,30.13,30.07,30.02,10,7,3,15,2,21,0.25,5,Rain,162